createdAt,value
2023-03-11T00:00:47.270Z,98344.38
2023-03-11T00:03:17.830Z,98362.13
2023-03-11T00:05:46.727Z,98370.84
2023-03-11T00:08:18.680Z,98380.94
2023-03-11T00:10:47.953Z,98394.44
2023-03-11T00:13:16.806Z,98405.59
2023-03-11T00:15:48.662Z,98424.13
2023-03-11T00:18:17.254Z,98435.78
2023-03-11T00:20:46.767Z,98451.94
2023-03-11T00:23:15.670Z,98444.75
2023-03-11T00:25:45.233Z,98455.06
2023-03-11T00:28:14.220Z,98468.03
2023-03-11T00:30:43.272Z,98465.09
2023-03-11T00:33:13.862Z,98476.69
2023-03-11T00:35:42.284Z,98472.69
2023-03-11T00:38:15.076Z,98492.56
2023-03-11T00:40:42.813Z,98489.59
2023-03-11T00:43:10.088Z,98490.13
2023-03-11T00:45:37.559Z,98503.59
2023-03-11T00:48:05.873Z,98506.50
2023-03-11T00:50:35.957Z,98501.38
2023-03-11T00:53:05.131Z,98511.97
2023-03-11T00:55:34.494Z,98506.66
2023-03-11T00:58:06.665Z,98525.13
2023-03-11T01:00:46.662Z,98525.34
2023-03-11T01:03:13.635Z,98527.13
2023-03-11T01:05:40.748Z,98537.44
2023-03-11T01:08:07.804Z,98547.72
2023-03-11T01:10:35.936Z,98555.91
2023-03-11T01:13:04.018Z,98557.44
2023-03-11T01:15:35.754Z,98573.03
2023-03-11T01:18:04.915Z,98577.75
2023-03-11T01:20:33.607Z,98579.31
2023-03-11T01:23:00.710Z,98571.81
2023-03-11T01:25:28.780Z,98597.72
2023-03-11T01:27:59.216Z,98604.53
2023-03-11T01:30:28.458Z,98617.03
2023-03-11T01:32:58.109Z,98634.44
2023-03-11T01:35:28.687Z,98637.34
2023-03-11T01:37:56.972Z,98637.59
2023-03-11T01:40:39.125Z,98644.16
2023-03-11T01:43:38.888Z,98652.66
2023-03-11T01:46:27.799Z,98663.94
2023-03-11T01:49:01.769Z,98669.47
2023-03-11T01:51:45.056Z,98666.19
2023-03-11T01:54:26.264Z,98682.25
2023-03-11T01:56:54.845Z,98688.56
2023-03-11T01:59:26.234Z,98705.16
2023-03-11T02:02:09.717Z,98710.69
2023-03-11T02:04:37.718Z,98713.03
2023-03-11T02:07:08.321Z,98717.84
2023-03-11T02:09:35.417Z,98726.50
2023-03-11T02:12:04.252Z,98739.94
2023-03-11T02:14:31.951Z,98747.88
2023-03-11T02:17:00.880Z,98752.69
2023-03-11T02:19:58.468Z,98761.19
2023-03-11T02:22:29.857Z,98783.63
2023-03-11T02:25:17.404Z,98789.94
2023-03-11T02:27:49.198Z,98800.78
2023-03-11T02:30:19.061Z,98806.06
2023-03-11T02:32:48.663Z,98821.91
2023-03-11T02:35:17.829Z,98829.84
2023-03-11T02:37:52.195Z,98839.63
2023-03-11T02:40:23.170Z,98855.72
2023-03-11T02:43:08.572Z,98863.66
2023-03-11T02:45:39.882Z,98873.44
2023-03-11T02:48:11.876Z,98886.41
2023-03-11T02:50:40.596Z,98892.75
2023-03-11T02:53:08.475Z,98908.13
2023-03-11T02:55:35.878Z,98910.78
2023-03-11T02:58:03.335Z,98925.28
2023-03-11T03:00:30.522Z,98935.63
2023-03-11T03:03:02.969Z,98937.47
2023-03-11T03:05:30.222Z,98955.50
2023-03-11T03:07:59.009Z,98947.56
2023-03-11T03:10:26.199Z,98965.50
2023-03-11T03:12:53.592Z,98970.56
2023-03-11T03:15:20.763Z,98979.06
2023-03-11T03:17:48.557Z,98988.03
2023-03-11T03:20:15.756Z,98984.34
2023-03-11T03:22:48.932Z,99003.19
2023-03-11T03:25:18.201Z,99006.31
2023-03-11T03:27:45.400Z,99016.56
2023-03-11T03:30:13.463Z,99037.00
2023-03-11T03:32:40.967Z,99046.78
2023-03-11T03:35:12.088Z,99054.38
2023-03-11T03:37:56.396Z,99068.97
2023-03-11T03:40:23.790Z,99067.03
2023-03-11T03:42:52.432Z,99081.63
2023-03-11T03:45:20.275Z,99093.47
2023-03-11T03:47:48.729Z,99105.22
2023-03-11T03:50:16.805Z,99116.38
2023-03-11T03:52:46.171Z,99131.09
2023-03-11T03:55:13.294Z,99130.97
2023-03-11T03:57:40.686Z,99146.16
2023-03-11T04:00:11.630Z,99152.94
2023-03-11T04:02:41.911Z,99168.22
2023-03-11T04:05:18.290Z,99173.16
2023-03-11T04:07:46.388Z,99172.94
2023-03-11T04:10:14.586Z,99194.53
2023-03-11T04:12:43.146Z,99214.88
2023-03-11T04:15:10.967Z,99207.63
2023-03-11T04:17:39.086Z,99213.94
2023-03-11T04:20:08.204Z,99215.78
2023-03-11T04:22:35.605Z,99232.22
2023-03-11T04:25:03.446Z,99223.25
2023-03-11T04:27:32.461Z,99236.38
2023-03-11T04:30:00.206Z,99235.69
2023-03-11T04:32:27.471Z,99238.91
2023-03-11T04:34:54.458Z,99259.59
2023-03-11T04:37:21.690Z,99262.81
2023-03-11T04:39:53.254Z,99272.59
2023-03-11T04:42:20.477Z,99283.38
2023-03-11T04:44:48.380Z,99284.66
2023-03-11T04:47:15.612Z,99300.84
2023-03-11T04:49:42.639Z,99295.34
2023-03-11T04:52:11.569Z,99301.22
2023-03-11T04:54:38.778Z,99304.44
2023-03-11T04:57:06.691Z,99313.97
2023-03-11T04:59:34.114Z,99315.81
2023-03-11T05:02:01.614Z,99322.72
2023-03-11T05:04:29.129Z,99337.31
2023-03-11T05:06:56.257Z,99342.38
2023-03-11T05:09:25.409Z,99337.91
2023-03-11T05:11:53.418Z,99344.00
2023-03-11T05:14:21.602Z,99349.06
2023-03-11T05:16:49.878Z,99360.31
2023-03-11T05:19:34.633Z,99367.22
2023-03-11T05:22:08.063Z,99387.56
2023-03-11T05:24:35.274Z,99393.09
2023-03-11T05:27:03.325Z,99402.41
2023-03-11T05:29:31.300Z,99410.69
2023-03-11T05:31:59.095Z,99437.13
2023-03-11T05:34:26.312Z,99425.75
2023-03-11T05:36:53.507Z,99428.19
2023-03-11T05:39:20.648Z,99426.56
2023-03-11T05:41:48.388Z,99440.59
2023-03-11T05:44:16.256Z,99445.66
2023-03-11T05:46:43.750Z,99453.00
2023-03-11T05:49:10.962Z,99468.88
2023-03-11T05:51:38.732Z,99470.50
2023-03-11T05:54:11.482Z,99478.41
2023-03-11T05:56:41.624Z,99484.28
2023-03-11T05:59:09.750Z,99482.47
2023-03-11T06:01:37.396Z,99494.22
2023-03-11T06:04:05.383Z,99509.63
2023-03-11T06:06:32.923Z,99503.31
2023-03-11T06:09:00.233Z,99504.34
2023-03-11T06:11:29.044Z,99511.38
2023-03-11T06:13:58.259Z,99525.41
2023-03-11T06:16:27.682Z,99528.41
2023-03-11T06:19:00.971Z,99539.59
2023-03-11T06:21:31.555Z,99542.00
2023-03-11T06:23:59.518Z,99548.09
2023-03-11T06:26:28.604Z,99554.44
2023-03-11T06:28:55.940Z,99561.13
2023-03-11T06:31:26.915Z,99564.13
2023-03-11T06:33:58.793Z,99578.97
2023-03-11T06:36:26.133Z,99574.13
2023-03-11T06:38:54.905Z,99594.25
2023-03-11T06:41:25.833Z,99579.41
2023-03-11T06:43:53.152Z,99584.94
2023-03-11T06:46:23.012Z,99606.47
2023-03-11T06:48:54.132Z,99613.59
2023-03-11T06:51:22.733Z,99619.25
2023-03-11T06:53:52.604Z,99615.56
2023-03-11T06:56:23.000Z,99625.56
2023-03-11T06:58:55.606Z,99631.06
2023-03-11T07:01:27.242Z,99637.75
2023-03-11T07:03:56.022Z,99643.06
2023-03-11T07:06:26.954Z,99653.41
2023-03-11T07:09:01.254Z,99655.25
2023-03-11T07:11:29.673Z,99664.81
2023-03-11T07:14:04.963Z,99673.38
2023-03-11T07:16:35.731Z,99670.09
2023-03-11T07:19:10.065Z,99680.50
2023-03-11T07:21:37.160Z,99681.72
2023-03-11T07:24:05.454Z,99692.03
2023-03-11T07:26:34.579Z,99689.53
2023-03-11T07:29:02.328Z,99702.47
2023-03-11T07:31:32.900Z,99711.22
2023-03-11T07:34:02.818Z,99725.47
2023-03-11T07:36:30.289Z,99735.91
2023-03-11T07:39:04.677Z,99732.91
2023-03-11T07:41:35.193Z,99752.78
2023-03-11T07:44:04.076Z,99766.75
2023-03-11T07:46:32.529Z,99756.28
2023-03-11T07:49:01.408Z,99769.69
2023-03-11T07:51:32.192Z,99771.06
2023-03-11T07:54:01.269Z,99774.09
2023-03-11T07:56:32.653Z,99780.56
2023-03-11T07:59:02.124Z,99782.06
2023-03-11T08:01:36.116Z,99788.44
2023-03-11T08:04:06.781Z,99800.03
2023-03-11T08:06:36.303Z,99798.16
2023-03-11T08:09:08.755Z,99810.53
2023-03-11T08:11:36.858Z,99815.97
2023-03-11T08:14:04.746Z,99815.97
2023-03-11T08:16:32.049Z,99825.44
2023-03-11T08:18:59.270Z,99831.91
2023-03-11T08:21:29.716Z,99833.88
2023-03-11T08:24:00.315Z,99840.56
2023-03-11T08:26:27.573Z,99845.31
2023-03-11T08:28:56.350Z,99860.09
2023-03-11T08:31:30.723Z,99863.34
2023-03-11T08:34:01.656Z,99860.56
2023-03-11T08:36:29.708Z,99866.69
2023-03-11T08:38:56.692Z,99884.38
2023-03-11T08:41:23.738Z,99881.34
2023-03-11T08:43:52.302Z,99881.56
2023-03-11T08:46:39.561Z,99896.97
2023-03-11T08:49:06.854Z,99887.84
2023-03-11T08:51:35.634Z,99902.09
2023-03-11T08:54:03.014Z,99897.69
2023-03-11T08:56:30.311Z,99915.81
2023-03-11T08:58:57.949Z,99919.78
2023-03-11T09:01:25.648Z,99922.44
2023-03-11T09:03:53.034Z,99917.91
2023-03-11T09:06:20.229Z,99920.75
2023-03-11T09:08:48.514Z,99937.13
2023-03-11T09:11:17.482Z,99955.84
2023-03-11T09:13:45.072Z,99945.38
2023-03-11T09:16:20.938Z,99954.69
2023-03-11T09:18:48.181Z,99949.31
2023-03-11T09:21:15.511Z,99954.13
2023-03-11T09:23:44.366Z,99959.69
2023-03-11T09:26:13.120Z,99955.06
2023-03-11T09:28:41.693Z,99968.72
2023-03-11T09:31:09.262Z,99968.63
2023-03-11T09:33:42.345Z,99964.56
2023-03-11T09:36:14.953Z,99978.31
2023-03-11T09:38:42.587Z,99968.13
2023-03-11T09:41:20.401Z,99984.34
2023-03-11T09:44:06.802Z,99991.06
2023-03-11T09:47:15.945Z,99989.44
2023-03-11T09:50:00.697Z,99993.03
2023-03-11T09:53:02.803Z,100006.81
2023-03-11T09:55:50.017Z,100001.38
2023-03-11T09:58:45.661Z,100013.13
2023-03-11T10:01:21.556Z,100021.22
2023-03-11T10:03:53.111Z,100028.75
2023-03-11T10:06:26.509Z,100032.50
2023-03-11T10:09:12.307Z,100033.53
2023-03-11T10:12:07.310Z,100040.34
2023-03-11T10:15:16.889Z,100031.59
2023-03-11T10:18:20.982Z,100057.44
2023-03-11T10:20:59.320Z,100046.53
2023-03-11T10:23:40.784Z,100048.81
2023-03-11T10:26:37.176Z,100062.34
2023-03-11T10:30:03.188Z,100066.16
2023-03-11T10:32:43.359Z,100072.28
2023-03-11T10:35:40.548Z,100070.44
2023-03-11T10:38:46.673Z,100071.75
2023-03-11T10:41:44.373Z,100073.69
2023-03-11T10:44:20.042Z,100083.38
2023-03-11T10:46:47.553Z,100091.13
2023-03-11T10:49:16.634Z,100092.13
2023-03-11T10:51:52.847Z,100079.44
2023-03-11T10:54:39.939Z,100077.97
2023-03-11T10:57:22.431Z,100071.19
2023-03-11T10:59:55.838Z,100088.38
2023-03-11T11:02:32.504Z,100083.56
2023-03-11T11:05:34.317Z,100096.47
2023-03-11T11:08:16.186Z,100096.25
2023-03-11T11:11:02.726Z,100093.97
2023-03-11T11:13:34.405Z,100087.16
2023-03-11T11:16:21.051Z,100102.13
2023-03-11T11:19:02.096Z,100106.41
2023-03-11T11:21:48.764Z,100113.00
2023-03-11T11:24:30.429Z,100112.59
2023-03-11T11:27:25.889Z,100106.06
2023-03-11T11:30:08.808Z,100120.78
2023-03-11T11:32:37.900Z,100110.34
2023-03-11T11:35:12.016Z,100111.44
2023-03-11T11:37:52.860Z,100120.00
2023-03-11T11:40:32.414Z,100110.97
2023-03-11T11:43:13.335Z,100126.38
2023-03-11T11:45:45.778Z,100120.44
2023-03-11T11:48:25.430Z,100115.50
2023-03-11T11:50:57.828Z,100122.78
2023-03-11T11:53:41.112Z,100122.03
2023-03-11T11:56:08.661Z,100121.53
2023-03-11T11:58:36.197Z,100126.34
2023-03-11T12:01:19.779Z,100126.69
2023-03-11T12:04:47.383Z,100138.81
2023-03-11T12:07:46.445Z,100130.22
2023-03-11T12:10:33.914Z,100126.59
2023-03-11T12:13:25.249Z,100134.97
2023-03-11T12:16:06.354Z,100143.78
2023-03-11T12:18:41.224Z,100132.75
2023-03-11T12:21:33.148Z,100140.28
2023-03-11T12:24:12.551Z,100133.00
2023-03-11T12:26:43.253Z,100141.81
2023-03-11T12:29:36.411Z,100149.13
2023-03-11T12:32:03.735Z,100144.81
2023-03-11T12:34:34.803Z,100150.41
2023-03-11T12:37:13.438Z,100141.03
2023-03-11T12:39:40.591Z,100147.16
2023-03-11T12:42:18.373Z,100154.59
2023-03-11T12:44:47.301Z,100158.94
2023-03-11T12:47:14.189Z,100164.88
2023-03-11T12:49:45.131Z,100153.44
2023-03-11T12:52:12.064Z,100159.16
2023-03-11T12:54:48.051Z,100150.47
2023-03-11T12:57:35.705Z,100168.19
2023-03-11T13:00:22.810Z,100169.38
2023-03-11T13:02:58.233Z,100175.06
2023-03-11T13:05:55.054Z,100183.84
2023-03-11T13:08:25.917Z,100178.50
2023-03-11T13:10:55.411Z,100173.66
2023-03-11T13:13:25.547Z,100184.31
2023-03-11T13:15:53.410Z,100181.78
2023-03-11T13:18:33.380Z,100188.94
2023-03-11T13:21:02.155Z,100198.78
2023-03-11T13:23:38.374Z,100202.47
2023-03-11T13:26:23.192Z,100202.19
2023-03-11T13:29:05.616Z,100210.78
2023-03-11T13:32:17.109Z,100197.06
2023-03-11T13:35:01.556Z,100204.69
2023-03-11T13:38:25.189Z,100213.44
2023-03-11T13:40:53.013Z,100204.22
2023-03-11T13:43:24.142Z,100219.22
2023-03-11T13:46:06.605Z,100225.88
2023-03-11T13:48:44.805Z,100228.38
2023-03-11T13:51:33.032Z,100228.56
2023-03-11T13:54:22.880Z,100232.75
2023-03-11T13:57:03.132Z,100242.47
2023-03-11T13:59:35.352Z,100238.44
2023-03-11T14:02:17.063Z,100242.63
2023-03-11T14:04:58.334Z,100237.53
2023-03-11T14:07:35.436Z,100249.34
2023-03-11T14:10:11.686Z,100246.28
2023-03-11T14:12:39.072Z,100249.84
2023-03-11T14:15:09.004Z,100233.94
2023-03-11T14:17:35.979Z,100256.59
2023-03-11T14:20:16.223Z,100255.41
2023-03-11T14:22:48.953Z,100264.88
2023-03-11T14:25:36.500Z,100262.47
2023-03-11T14:28:05.754Z,100258.66
2023-03-11T14:30:34.524Z,100261.25
2023-03-11T14:33:05.915Z,100261.50
2023-03-11T14:35:34.376Z,100262.22
2023-03-11T14:38:01.892Z,100271.69
2023-03-11T14:40:37.797Z,100263.59
2023-03-11T14:43:08.084Z,100278.50
2023-03-11T14:45:42.241Z,100283.28
2023-03-11T14:48:28.203Z,100295.31
2023-03-11T14:50:58.823Z,100283.41
2023-03-11T14:53:36.608Z,100291.94
2023-03-11T14:56:08.806Z,100284.72
2023-03-11T14:58:51.053Z,100284.41
2023-03-11T15:01:25.924Z,100278.31
2023-03-11T15:04:44.235Z,100284.97
2023-03-11T15:07:11.310Z,100283.47
2023-03-11T15:09:40.936Z,100293.84
2023-03-11T15:12:31.005Z,100296.97
2023-03-11T15:14:58.647Z,100295.34
2023-03-11T15:17:37.365Z,100296.16
2023-03-11T15:20:34.012Z,100298.38
2023-03-11T15:23:04.727Z,100304.53
2023-03-11T15:25:36.725Z,100312.28
2023-03-11T15:28:25.015Z,100306.94
2023-03-11T15:31:31.244Z,100301.59
2023-03-11T15:34:32.594Z,100308.25
2023-03-11T15:37:20.601Z,100309.13
2023-03-11T15:39:52.010Z,100299.44
2023-03-11T15:42:27.161Z,100300.19
2023-03-11T15:45:04.032Z,100296.69
2023-03-11T15:47:31.501Z,100303.91
2023-03-11T15:50:03.179Z,100310.09
2023-03-11T15:52:30.082Z,100310.97
2023-03-11T15:54:56.982Z,100316.06
2023-03-11T15:57:29.526Z,100323.78
2023-03-11T15:59:58.787Z,100320.34
2023-03-11T16:02:31.622Z,100324.28
2023-03-11T16:04:59.645Z,100334.88
2023-03-11T16:07:39.234Z,100324.28
2023-03-11T16:10:11.127Z,100323.84
2023-03-11T16:12:38.715Z,100315.56
2023-03-11T16:15:10.859Z,100325.16
2023-03-11T16:17:49.271Z,100333.63
2023-03-11T16:20:17.908Z,100342.59
2023-03-11T16:22:45.211Z,100339.72
2023-03-11T16:25:31.744Z,100355.88
2023-03-11T16:27:59.936Z,100358.00
2023-03-11T16:30:30.312Z,100363.28
2023-03-11T16:32:57.784Z,100365.19
2023-03-11T16:35:25.342Z,100368.75
2023-03-11T16:37:52.421Z,100369.25
2023-03-11T16:40:25.189Z,100381.41
2023-03-11T16:43:00.161Z,100389.91
2023-03-11T16:45:27.270Z,100377.94
2023-03-11T16:47:54.214Z,100394.25
2023-03-11T16:50:24.226Z,100398.13
2023-03-11T16:52:53.063Z,100393.19
2023-03-11T16:55:20.900Z,100396.78
2023-03-11T16:57:48.056Z,100406.03
2023-03-11T17:00:15.964Z,100405.91
2023-03-11T17:02:42.872Z,100406.91
2023-03-11T17:05:10.586Z,100406.06
2023-03-11T17:07:40.131Z,100409.53
2023-03-11T17:10:09.317Z,100410.84
2023-03-11T17:12:36.394Z,100413.03
2023-03-11T17:15:07.038Z,100425.59
2023-03-11T17:17:33.980Z,100419.63
2023-03-11T17:20:01.109Z,100429.50
2023-03-11T17:22:28.054Z,100422.81
2023-03-11T17:24:55.030Z,100431.66
2023-03-11T17:27:21.962Z,100432.53
2023-03-11T17:29:49.079Z,100429.13
2023-03-11T17:32:17.603Z,100444.66
2023-03-11T17:34:44.685Z,100433.91
2023-03-11T17:37:12.056Z,100443.72
2023-03-11T17:39:39.026Z,100443.13
2023-03-11T17:42:06.551Z,100448.81
2023-03-11T17:44:49.980Z,100449.41
2023-03-11T17:47:19.483Z,100442.09
2023-03-11T17:49:46.579Z,100450.88
2023-03-11T17:52:13.549Z,100459.03
2023-03-11T17:54:40.516Z,100457.00
2023-03-11T17:57:07.500Z,100462.69
2023-03-11T17:59:34.595Z,100467.19
2023-03-11T18:02:01.562Z,100463.31
2023-03-11T18:04:28.733Z,100466.75
2023-03-11T18:06:56.408Z,100468.38
2023-03-11T18:09:23.491Z,100466.97
2023-03-11T18:11:50.441Z,100474.03
2023-03-11T18:14:17.534Z,100481.16
2023-03-11T18:16:44.693Z,100480.75
2023-03-11T18:19:11.597Z,100475.25
2023-03-11T18:21:38.764Z,100471.16
2023-03-11T18:24:06.386Z,100474.63
2023-03-11T18:26:33.456Z,100493.75
2023-03-11T18:29:01.140Z,100489.69
2023-03-11T18:31:29.992Z,100494.34
2023-03-11T18:34:01.445Z,100490.28
2023-03-11T18:36:35.810Z,100494.13
2023-03-11T18:39:04.875Z,100489.03
2023-03-11T18:41:34.731Z,100493.09
2023-03-11T18:44:02.381Z,100489.22
2023-03-11T18:46:32.560Z,100495.34
2023-03-11T18:49:01.175Z,100496.34
2023-03-11T18:51:31.323Z,100507.31
2023-03-11T18:53:59.673Z,100503.66
2023-03-11T18:56:27.473Z,100499.97
2023-03-11T18:58:55.960Z,100495.91
2023-03-11T19:01:23.381Z,100493.66
2023-03-11T19:03:54.023Z,100498.13
2023-03-11T19:06:22.967Z,100494.06
2023-03-11T19:08:50.682Z,100504.00
2023-03-11T19:11:21.776Z,100499.13
2023-03-11T19:13:48.812Z,100501.97
2023-03-11T19:16:19.890Z,100496.25
2023-03-11T19:18:47.964Z,100512.50
2023-03-11T19:21:16.208Z,100514.34
2023-03-11T19:23:44.351Z,100511.69
2023-03-11T19:26:11.713Z,100512.91
2023-03-11T19:28:38.610Z,100507.22
2023-03-11T19:31:05.818Z,100517.75
2023-03-11T19:33:33.272Z,100519.00
2023-03-11T19:36:04.481Z,100517.56
2023-03-11T19:38:32.032Z,100515.94
2023-03-11T19:41:20.599Z,100514.50
2023-03-11T19:43:49.330Z,100509.59
2023-03-11T19:46:20.763Z,100512.84
2023-03-11T19:48:47.984Z,100513.19
2023-03-11T19:51:17.066Z,100516.50
2023-03-11T19:53:45.577Z,100514.47
2023-03-11T19:56:12.452Z,100508.09
2023-03-11T19:58:42.438Z,100522.13
2023-03-11T20:01:20.362Z,100515.81
2023-03-11T20:03:47.659Z,100530.03
2023-03-11T20:06:16.587Z,100521.09
2023-03-11T20:08:43.836Z,100510.72
2023-03-11T20:11:10.944Z,100523.31
2023-03-11T20:13:40.979Z,100516.56
2023-03-11T20:16:13.162Z,100515.38
2023-03-11T20:18:40.431Z,100516.78
2023-03-11T20:21:09.951Z,100518.59
2023-03-11T20:23:38.129Z,100509.84
2023-03-11T20:26:10.893Z,100524.91
2023-03-11T20:28:38.491Z,100521.25
2023-03-11T20:31:22.231Z,100520.22
2023-03-11T20:33:50.833Z,100514.13
2023-03-11T20:36:25.888Z,100517.78
2023-03-11T20:38:54.817Z,100524.28
2023-03-11T20:41:23.972Z,100522.03
2023-03-11T20:43:57.009Z,100523.25
2023-03-11T20:46:24.647Z,100532.00
2023-03-11T20:48:52.209Z,100534.66
2023-03-11T20:51:20.735Z,100530.56
2023-03-11T20:53:48.999Z,100537.53
2023-03-11T20:56:23.451Z,100534.88
2023-03-11T20:58:51.737Z,100524.91
2023-03-11T21:01:27.016Z,100529.97
2023-03-11T21:03:57.276Z,100531.44
2023-03-11T21:06:36.830Z,100530.22
2023-03-11T21:09:08.387Z,100527.56
2023-03-11T21:11:35.416Z,100525.56
2023-03-11T21:14:02.923Z,100527.56
2023-03-11T21:16:30.292Z,100520.03
2023-03-11T21:18:57.341Z,100537.53
2023-03-11T21:21:24.499Z,100513.75
2023-03-11T21:23:51.680Z,100535.13
2023-03-11T21:26:18.751Z,100532.28
2023-03-11T21:28:46.672Z,100531.66
2023-03-11T21:31:18.776Z,100528.81
2023-03-11T21:33:47.187Z,100536.94
2023-03-11T21:36:16.207Z,100528.81
2023-03-11T21:38:43.707Z,100525.56
2023-03-11T21:41:20.558Z,100520.47
2023-03-11T21:43:48.819Z,100530.22
2023-03-11T21:46:20.061Z,100529.59
2023-03-11T21:48:48.021Z,100515.13
2023-03-11T21:51:17.116Z,100519.81
2023-03-11T21:53:44.505Z,100523.25
2023-03-11T21:56:13.337Z,100524.47
2023-03-11T21:58:41.021Z,100518.56
2023-03-11T22:01:09.914Z,100511.06
2023-03-11T22:03:37.980Z,100514.28
2023-03-11T22:06:09.055Z,100509.81
2023-03-11T22:08:36.872Z,100511.84
2023-03-11T22:11:08.852Z,100515.28
2023-03-11T22:13:36.127Z,100513.47
2023-03-11T22:16:06.377Z,100523.84
2023-03-11T22:18:33.685Z,100512.03
2023-03-11T22:21:01.281Z,100512.03
2023-03-11T22:23:28.495Z,100527.69
2023-03-11T22:25:55.597Z,100500.06
2023-03-11T22:28:22.967Z,100511.84
2023-03-11T22:30:50.134Z,100514.06
2023-03-11T22:33:17.517Z,100518.94
2023-03-11T22:35:56.603Z,100512.06
2023-03-11T22:38:24.285Z,100520.00
2023-03-11T22:40:51.996Z,100519.81
2023-03-11T22:43:19.421Z,100517.97
2023-03-11T22:45:46.471Z,100519.59
2023-03-11T22:48:13.685Z,100514.31
2023-03-11T22:50:44.402Z,100520.84
2023-03-11T22:53:12.930Z,100520.84
2023-03-11T22:55:44.233Z,100512.31
2023-03-11T22:58:12.317Z,100521.47
2023-03-11T23:00:40.547Z,100524.75
2023-03-11T23:03:07.655Z,100519.66
2023-03-11T23:05:41.740Z,100512.53
2023-03-11T23:08:12.229Z,100515.81
2023-03-11T23:10:47.554Z,100525.56
2023-03-11T23:13:15.385Z,100525.16
2023-03-11T23:15:44.557Z,100520.88
2023-03-11T23:18:12.827Z,100528.63
2023-03-11T23:20:42.295Z,100528.81
2023-03-11T23:23:10.771Z,100519.88
2023-03-11T23:25:39.759Z,100521.13
2023-03-11T23:28:07.811Z,100530.06
2023-03-11T23:30:35.778Z,100522.31
2023-03-11T23:33:02.974Z,100520.88
2023-03-11T23:35:32.488Z,100528.63
2023-03-11T23:38:00.225Z,100532.09
2023-03-11T23:40:27.989Z,100533.53
2023-03-11T23:42:55.091Z,100531.66
2023-03-11T23:45:22.267Z,100521.72
2023-03-11T23:47:49.505Z,100530.84
2023-03-11T23:50:16.570Z,100542.66
2023-03-11T23:52:43.555Z,100531.47
2023-03-11T23:55:11.132Z,100530.22
2023-03-11T23:57:38.267Z,100537.38
